Time;durP1;ratioP1;P1;durP2;ratioP2;P2;SDS_P1;SDS_P2;PMS_P1;PMS_P2;Temp;Humidity;BMP_temperature;BMP_pressure;BME280_temperature;BME280_humidity;BME280_pressure;Samples;Min_cycle;Max_cycle;Signal;HPM_P1;HPM_P2
2022/09/28 00:01:20;;;;;;;13.43;10.38;;;;;;;8.42;100.00;99422.31;5075266;28;20052;-54
2022/09/28 00:03:49;;;;;;;14.77;9.73;;;;;;;8.40;100.00;99413.75;5075148;28;20048;-53
2022/09/28 00:06:19;;;;;;;14.45;9.40;;;;;;;8.40;100.00;99412.94;5075053;28;20480;-55
2022/09/28 00:08:49;;;;;;;16.00;9.90;;;;;;;8.41;100.00;99418.03;5075193;28;20462;-55
2022/09/28 00:11:19;;;;;;;16.15;9.88;;;;;;;8.33;100.00;99417.81;5074735;28;20132;-53
2022/09/28 00:13:50;;;;;;;14.30;9.30;;;;;;;8.37;100.00;99414.00;5107198;28;20098;-55
2022/09/28 00:16:20;;;;;;;14.75;9.73;;;;;;;8.34;100.00;99410.78;5075053;28;20045;-54
2022/09/28 00:18:49;;;;;;;16.80;9.75;;;;;;;8.42;100.00;99413.63;5107839;28;20491;-55
2022/09/28 00:21:21;;;;;;;14.05;9.75;;;;;;;8.44;100.00;99406.50;5074606;28;20143;-54
2022/09/28 00:26:41;;;;;;;13.10;10.23;;;;;;;8.39;100.00;99411.25;5074642;28;20521;-54
2022/09/28 00:29:16;;;;;;;14.18;10.38;;;;;;;8.36;100.00;99407.09;5073145;28;20067;-53
2022/09/28 00:31:44;;;;;;;14.25;10.55;;;;;;;8.33;100.00;99412.56;5070024;28;20097;-54
2022/09/28 00:34:12;;;;;;;15.43;10.27;;;;;;;8.35;100.00;99409.84;5074271;28;20040;-53
2022/09/28 00:36:44;;;;;;;12.43;9.18;;;;;;;8.32;100.00;99403.03;5073667;28;20066;-54
2022/09/28 00:39:15;;;;;;;14.40;10.50;;;;;;;8.26;100.00;99401.75;5074079;28;20086;-54
2022/09/28 00:41:44;;;;;;;14.20;10.35;;;;;;;8.24;100.00;99403.63;5074267;28;20064;-55
2022/09/28 00:44:34;;;;;;;15.48;10.80;;;;;;;8.22;100.00;99395.06;5074651;28;20045;-54
2022/09/28 00:47:12;;;;;;;14.40;10.10;;;;;;;8.20;100.00;99398.78;5073634;28;20041;-54
2022/09/28 00:49:45;;;;;;;14.52;10.65;;;;;;;8.23;100.00;99396.72;5073857;28;20048;-56
2022/09/28 00:52:16;;;;;;;15.77;10.10;;;;;;;8.17;100.00;99396.41;5073939;28;20041;-53
2022/09/28 00:54:47;;;;;;;14.50;10.27;;;;;;;8.20;100.00;99398.78;5073866;28;20048;-52
2022/09/28 00:57:16;;;;;;;16.17;10.65;;;;;;;8.15;100.00;99396.50;5073811;28;20124;-54
2022/09/28 00:59:44;;;;;;;14.60;9.60;;;;;;;8.17;100.00;99397.22;5074055;28;20041;-54
2022/09/28 01:02:12;;;;;;;14.25;9.10;;;;;;;8.12;100.00;99401.97;5073632;28;20068;-52
2022/09/28 01:04:40;;;;;;;14.30;9.75;;;;;;;8.13;100.00;99398.41;5073286;28;20070;-52
2022/09/28 01:07:09;;;;;;;17.55;10.85;;;;;;;8.14;100.00;99397.47;5073572;28;20052;-49
2022/09/28 01:09:39;;;;;;;14.98;10.20;;;;;;;8.16;100.00;99395.53;5071416;28;20106;-52
2022/09/28 01:12:09;;;;;;;16.05;11.40;;;;;;;8.11;100.00;99393.28;5071507;28;20211;-54
2022/09/28 01:14:37;;;;;;;15.07;10.95;;;;;;;8.12;100.00;99396.75;5072389;28;20063;-50
2022/09/28 01:17:12;;;;;;;15.15;10.80;;;;;;;8.12;100.00;99389.69;5069405;28;20044;-54
2022/09/28 01:20:22;;;;;;;15.85;10.10;;;;;;;8.10;100.00;99386.38;5069627;28;20048;-52
2022/09/28 01:23:28;;;;;;;16.10;11.70;;;;;;;8.12;100.00;99386.25;5056261;28;20532;-49
2022/09/28 01:26:36;;;;;;;16.30;11.73;;;;;;;8.17;100.00;99391.97;5071403;28;20079;-53
2022/09/28 01:29:13;;;;;;;18.15;12.38;;;;;;;8.22;100.00;99391.59;5013159;28;20081;-55
2022/09/28 01:31:46;;;;;;;17.40;12.45;;;;;;;8.20;100.00;99385.69;5031096;28;20053;-53
2022/09/28 01:34:18;;;;;;;15.57;12.35;;;;;;;8.30;100.00;99383.97;5052695;28;20063;-52
2022/09/28 01:36:49;;;;;;;17.42;12.68;;;;;;;8.25;100.00;99388.78;5069888;28;20044;-50
2022/09/28 01:39:22;;;;;;;16.92;13.00;;;;;;;8.26;100.00;99391.25;5070742;28;20052;-51
2022/09/28 01:41:53;;;;;;;18.38;12.85;;;;;;;8.26;100.00;99388.66;5070604;28;20383;-53
2022/09/28 01:44:27;;;;;;;17.52;11.90;;;;;;;8.32;100.00;99391.72;5071018;28;20102;-51
2022/09/28 01:47:02;;;;;;;18.42;11.68;;;;;;;8.31;100.00;99392.69;5072871;28;20048;-53
2022/09/28 01:49:35;;;;;;;17.13;12.48;;;;;;;8.27;100.00;99387.66;5072598;28;20048;-53
2022/09/28 01:52:10;;;;;;;17.77;12.48;;;;;;;8.18;100.00;99382.31;5072901;28;20110;-55
2022/09/28 01:54:43;;;;;;;16.73;12.38;;;;;;;8.22;100.00;99389.00;5072771;28;20387;-51
2022/09/28 01:57:16;;;;;;;17.58;12.20;;;;;;;8.22;100.00;99389.84;5072897;28;20045;-53
2022/09/28 01:59:54;;;;;;;15.75;11.52;;;;;;;8.23;100.00;99390.66;5073023;28;20032;-54
2022/09/28 02:02:28;;;;;;;14.70;10.50;;;;;;;8.21;100.00;99387.34;5072787;28;20053;-52
2022/09/28 02:05:00;;;;;;;14.48;11.00;;;;;;;8.18;100.00;99387.56;5070552;28;20160;-52
2022/09/28 02:07:34;;;;;;;16.23;10.77;;;;;;;8.19;100.00;99382.19;5069307;28;20044;-53
2022/09/28 02:10:09;;;;;;;15.82;11.90;;;;;;;8.13;100.00;99380.91;5072291;28;20036;-51
2022/09/28 02:12:41;;;;;;;14.07;10.80;;;;;;;8.16;100.00;99377.22;5072682;28;20102;-55
2022/09/28 02:15:17;;;;;;;18.23;11.32;;;;;;;8.17;100.00;99378.88;5072856;28;20127;-53
2022/09/28 02:17:45;;;;;;;15.73;10.55;;;;;;;8.12;100.00;99378.41;5072625;28;20082;-56
2022/09/28 02:20:14;;;;;;;15.10;11.15;;;;;;;8.10;100.00;99380.31;5072213;28;20068;-54
2022/09/28 02:22:47;;;;;;;13.45;10.95;;;;;;;8.11;100.00;99376.72;5072369;28;20048;-53
2022/09/28 02:25:23;;;;;;;14.40;10.60;;;;;;;8.06;100.00;99382.34;5072659;28;20053;-53
2022/09/28 02:27:56;;;;;;;15.88;10.65;;;;;;;8.04;100.00;99375.56;5072326;28;20090;-53
2022/09/28 02:30:26;;;;;;;14.70;10.07;;;;;;;7.99;100.00;99382.94;5072611;28;20102;-54
2022/09/28 02:32:59;;;;;;;14.10;10.15;;;;;;;7.99;100.00;99377.69;5072158;28;20044;-49
2022/09/28 02:35:28;;;;;;;15.15;10.70;;;;;;;7.95;100.00;99379.72;5072148;28;20105;-53
2022/09/28 02:37:56;;;;;;;14.15;10.75;;;;;;;7.95;100.00;99375.31;5072672;28;20037;-52
2022/09/28 02:40:28;;;;;;;15.82;10.52;;;;;;;7.97;100.00;99375.19;5072467;28;20106;-54
2022/09/28 02:43:05;;;;;;;15.85;10.80;;;;;;;8.04;100.00;99378.16;5070600;28;20101;-52
2022/09/28 02:45:51;;;;;;;13.32;9.65;;;;;;;8.03;100.00;99379.13;5068994;28;20036;-53
2022/09/28 02:48:47;;;;;;;14.82;10.57;;;;;;;8.01;100.00;99379.25;5069527;28;20059;-50
2022/09/28 02:51:41;;;;;;;13.32;9.35;;;;;;;8.00;100.00;99381.97;5071802;28;20040;-53
2022/09/28 02:54:32;;;;;;;11.52;8.68;;;;;;;8.02;100.00;99377.47;5070081;28;20069;-55
2022/09/28 02:57:13;;;;;;;13.65;8.80;;;;;;;7.98;100.00;99378.66;5071708;28;20049;-52
2022/09/28 02:59:50;;;;;;;12.77;9.07;;;;;;;8.00;100.00;99392.44;5072102;28;20048;-53
2022/09/28 03:02:27;;;;;;;15.57;9.38;;;;;;;7.99;100.00;99393.41;5071600;28;20041;-53
2022/09/28 03:05:10;;;;;;;12.18;10.10;;;;;;;7.99;100.00;99385.53;5074883;28;20440;-53
2022/09/28 03:07:44;;;;;;;12.23;9.40;;;;;;;7.89;100.00;99388.88;5076371;28;20048;-53
2022/09/28 03:10:18;;;;;;;14.80;9.57;;;;;;;7.87;100.00;99393.41;5073726;28;20044;-54
2022/09/28 03:12:48;;;;;;;13.55;9.63;;;;;;;7.97;100.00;99395.31;5073476;28;20045;-53
2022/09/28 03:15:22;;;;;;;13.48;9.50;;;;;;;7.92;100.00;99386.03;5075879;28;20102;-52
2022/09/28 03:17:53;;;;;;;13.77;10.18;;;;;;;7.95;100.00;99390.22;5074549;28;20051;-53
2022/09/28 03:20:21;;;;;;;14.05;10.00;;;;;;;7.95;100.00;99398.88;5074711;28;20064;-54
2022/09/28 03:22:49;;;;;;;12.43;9.30;;;;;;;8.01;100.00;99392.34;5075422;28;20165;-52
2022/09/28 03:25:37;;;;;;;12.90;9.65;;;;;;;7.98;100.00;99399.59;5074367;28;20135;-53
2022/09/28 03:28:05;;;;;;;15.07;10.20;;;;;;;8.01;100.00;99401.97;5075674;28;20086;-54
2022/09/28 03:30:33;;;;;;;13.23;9.25;;;;;;;8.04;100.00;99397.31;5074153;28;20056;-55
2022/09/28 03:33:03;;;;;;;16.80;9.45;;;;;;;8.01;100.00;99399.38;5075624;28;20143;-54
2022/09/28 03:35:31;;;;;;;12.48;9.02;;;;;;;8.07;100.00;99398.88;5075014;28;20059;-54
2022/09/28 03:37:59;;;;;;;14.35;9.43;;;;;;;8.05;100.00;99406.84;5073963;28;20131;-54
2022/09/28 03:40:27;;;;;;;13.07;9.05;;;;;;;8.05;100.00;99404.22;5075040;28;20052;-53
2022/09/28 03:42:55;;;;;;;11.50;8.95;;;;;;;8.06;100.00;99400.66;5075853;28;20045;-52
2022/09/28 03:45:23;;;;;;;11.57;8.68;;;;;;;8.10;100.00;99401.28;5075282;28;20036;-54
2022/09/28 03:47:52;;;;;;;12.80;8.80;;;;;;;8.04;100.00;99401.72;5071119;28;20118;-54
2022/09/28 03:50:21;;;;;;;13.23;9.02;;;;;;;8.03;100.00;99397.44;5073713;28;20113;-53
2022/09/28 03:52:53;;;;;;;12.88;9.25;;;;;;;8.09;100.00;99402.22;5075171;28;20064;-53
2022/09/28 03:55:21;;;;;;;13.35;8.82;;;;;;;8.05;100.00;99398.19;5073477;28;20095;-55
2022/09/28 03:57:54;;;;;;;13.13;9.82;;;;;;;8.06;100.00;99397.22;5072643;28;20723;-54
2022/09/28 04:00:22;;;;;;;13.38;8.85;;;;;;;8.06;100.00;99400.66;5074725;28;20060;-56
2022/09/28 04:02:51;;;;;;;12.68;8.90;;;;;;;8.05;100.00;99400.78;5074759;28;20040;-52
2022/09/28 04:05:19;;;;;;;13.65;8.65;;;;;;;8.09;100.00;99399.59;5074700;28;20411;-53
2022/09/28 04:07:48;;;;;;;12.35;8.77;;;;;;;8.03;100.00;99392.22;5074894;28;20357;-54
2022/09/28 04:10:16;;;;;;;11.93;8.13;;;;;;;8.10;100.00;99389.00;5074869;28;20395;-55
2022/09/28 04:12:44;;;;;;;12.02;8.35;;;;;;;8.08;100.00;99393.50;5074370;28;20087;-54
2022/09/28 04:15:13;;;;;;;14.65;8.18;;;;;;;8.17;100.00;99389.38;5107393;28;20064;-54
2022/09/28 04:17:41;;;;;;;14.68;7.80;;;;;;;8.18;100.00;99393.66;5073661;28;20055;-54
2022/09/28 04:20:10;;;;;;;12.35;7.65;;;;;;;8.19;100.00;99387.44;5075174;28;20044;-54
2022/09/28 04:22:38;;;;;;;10.45;7.72;;;;;;;8.20;100.00;99390.91;5074684;28;20108;-53
2022/09/28 04:25:09;;;;;;;11.15;7.53;;;;;;;8.23;100.00;99395.91;5074480;28;20059;-53
2022/09/28 04:30:23;;;;;;;14.07;7.97;;;;;;;8.20;100.00;99396.97;5074692;28;20048;-53
2022/09/28 04:32:51;;;;;;;11.48;7.68;;;;;;;8.18;100.00;99395.41;5074641;28;20555;-54
2022/09/28 04:35:19;;;;;;;13.30;7.75;;;;;;;8.13;100.00;99387.94;5074496;28;20580;-53
2022/09/28 04:37:47;;;;;;;13.88;7.82;;;;;;;8.21;100.00;99387.34;5074284;28;20537;-53
2022/09/28 04:40:17;;;;;;;10.68;7.20;;;;;;;8.13;100.00;99385.31;5074252;28;20052;-55
2022/09/28 04:42:52;;;;;;;12.10;7.50;;;;;;;8.07;100.00;99398.88;5073388;28;20037;-54
2022/09/28 04:45:20;;;;;;;11.85;7.85;;;;;;;8.04;100.00;99391.25;5071394;28;20052;-53
2022/09/28 04:47:48;;;;;;;11.63;8.02;;;;;;;8.05;100.00;99399.00;5071971;28;20047;-52
2022/09/28 04:50:17;;;;;;;12.05;7.15;;;;;;;8.03;100.00;99395.69;5073787;28;20102;-52
2022/09/28 04:52:44;;;;;;;11.27;7.82;;;;;;;8.03;100.00;99398.28;5071770;28;20052;-54
2022/09/28 04:55:13;;;;;;;12.82;7.32;;;;;;;7.97;100.00;99403.16;5072728;28;20072;-56
2022/09/28 04:57:42;;;;;;;11.93;6.90;;;;;;;7.88;100.00;99408.16;5073918;28;20056;-54
2022/09/28 05:00:12;;;;;;;12.15;7.35;;;;;;;7.89;100.00;99403.75;5074013;28;20045;-55
2022/09/28 05:02:40;;;;;;;12.13;7.30;;;;;;;7.89;100.00;99401.94;5073520;28;20086;-53
2022/09/28 05:05:09;;;;;;;10.65;7.15;;;;;;;7.81;100.00;99393.84;5073928;28;20040;-54
2022/09/28 05:07:37;;;;;;;12.63;7.18;;;;;;;7.81;100.00;99395.66;5073691;28;20052;-53
2022/09/28 05:10:08;;;;;;;10.15;6.82;;;;;;;7.69;100.00;99397.41;5073777;28;20120;-55
2022/09/28 05:12:36;;;;;;;11.50;6.65;;;;;;;7.77;100.00;99402.91;5073648;28;20044;-53
2022/09/28 05:15:06;;;;;;;11.68;7.07;;;;;;;7.67;100.00;99397.53;5073494;28;20102;-54
2022/09/28 05:17:35;;;;;;;10.52;6.75;;;;;;;7.61;100.00;99401.44;5073651;28;20530;-54
2022/09/28 05:20:04;;;;;;;10.07;6.60;;;;;;;7.56;100.00;99398.34;5071092;28;20063;-53
2022/09/28 05:22:33;;;;;;;14.38;6.85;;;;;;;7.57;100.00;99401.81;5070848;28;20048;-52
2022/09/28 05:25:01;;;;;;;11.90;7.40;;;;;;;7.50;100.00;99409.28;5070968;28;20052;-53
2022/09/28 05:27:30;;;;;;;11.13;6.32;;;;;;;7.45;100.00;99416.63;5071063;28;20403;-53
2022/09/28 05:29:58;;;;;;;9.18;6.20;;;;;;;7.47;100.00;99409.50;5072769;28;20448;-53
2022/09/28 05:32:27;;;;;;;11.60;6.65;;;;;;;7.48;100.00;99411.16;5072859;28;20131;-54
2022/09/28 05:34:55;;;;;;;12.45;6.90;;;;;;;7.34;100.00;99414.81;5072270;28;20457;-54
2022/09/28 05:37:23;;;;;;;10.20;6.82;;;;;;;7.38;100.00;99407.59;5070901;28;20047;-54
2022/09/28 05:39:51;;;;;;;12.68;6.75;;;;;;;7.31;100.00;99408.97;5070957;28;20076;-53
2022/09/28 05:42:19;;;;;;;9.90;6.22;;;;;;;7.31;100.00;99408.97;5072726;28;20047;-52
2022/09/28 05:44:47;;;;;;;11.75;6.38;;;;;;;7.22;100.00;99411.31;5071595;28;20443;-51
2022/09/28 05:47:15;;;;;;;10.52;6.93;;;;;;;7.18;100.00;99409.06;5068786;28;20088;-55
2022/09/28 05:49:45;;;;;;;9.35;6.63;;;;;;;7.30;100.00;99415.19;5071901;28;20080;-52
2022/09/28 05:52:14;;;;;;;9.90;5.75;;;;;;;7.23;100.00;99409.56;5072916;28;20046;-52
2022/09/28 05:54:42;;;;;;;9.70;5.85;;;;;;;7.21;100.00;99417.53;5073061;28;20597;-53
2022/09/28 05:57:10;;;;;;;10.05;6.20;;;;;;;7.15;100.00;99419.75;5073027;28;20040;-53
2022/09/28 05:59:38;;;;;;;11.43;6.72;;;;;;;7.15;100.00;99424.97;5071551;28;20044;-53
2022/09/28 06:02:07;;;;;;;9.95;6.32;;;;;;;7.07;100.00;99422.91;5073041;28;20542;-52
2022/09/28 06:04:35;;;;;;;8.93;6.03;;;;;;;7.04;100.00;99429.22;5072890;28;20117;-52
2022/09/28 06:07:04;;;;;;;10.82;6.32;;;;;;;7.00;100.00;99426.94;5071278;28;20529;-52
2022/09/28 06:09:32;;;;;;;11.65;6.45;;;;;;;7.07;100.00;99428.16;5070924;28;20686;-52
2022/09/28 06:12:00;;;;;;;9.88;5.82;;;;;;;6.99;100.00;99422.66;5071948;28;20036;-53
2022/09/28 06:14:29;;;;;;;9.35;5.95;;;;;;;7.08;100.00;99429.81;5070924;28;20449;-52
2022/09/28 06:16:58;;;;;;;9.82;6.63;;;;;;;7.03;100.00;99432.75;5068727;28;20075;-50
2022/09/28 06:19:26;;;;;;;10.57;6.55;;;;;;;7.05;100.00;99441.34;5069813;28;20052;-53
2022/09/28 06:21:54;;;;;;;9.88;6.22;;;;;;;7.11;100.00;99447.91;5070295;28;20072;-50
2022/09/28 06:24:27;;;;;;;8.20;6.07;;;;;;;6.98;100.00;99449.72;5070661;28;20521;-53
2022/09/28 06:26:57;;;;;;;9.90;6.13;;;;;;;6.99;100.00;99451.41;5072456;28;20498;-52
2022/09/28 06:29:25;;;;;;;9.68;6.05;;;;;;;7.02;100.00;99453.78;5072568;28;20086;-52
2022/09/28 06:31:54;;;;;;;9.40;5.65;;;;;;;6.96;100.00;99451.63;5072501;28;20131;-51
2022/09/28 06:34:23;;;;;;;9.02;6.28;;;;;;;6.97;100.00;99448.91;5072025;28;20044;-52
2022/09/28 06:36:51;;;;;;;9.98;6.63;;;;;;;6.95;100.00;99450.78;5072244;28;20048;-52
2022/09/28 06:39:19;;;;;;;10.20;6.28;;;;;;;6.96;100.00;99464.69;5071543;28;20681;-52
2022/09/28 06:41:49;;;;;;;10.23;6.40;;;;;;;6.97;100.00;99466.34;5069300;28;20062;-53
2022/09/28 06:44:17;;;;;;;9.40;5.78;;;;;;;7.06;100.00;99470.91;5071487;28;20053;-54
2022/09/28 06:46:45;;;;;;;8.75;5.50;;;;;;;7.15;100.00;99467.66;5072017;28;20115;-50
2022/09/28 06:49:16;;;;;;;8.85;5.65;;;;;;;7.21;100.00;99468.97;5069601;28;20495;-51
2022/09/28 06:51:46;;;;;;;8.57;5.95;;;;;;;7.27;100.00;99461.50;5070369;28;20052;-50
2022/09/28 06:54:14;;;;;;;11.18;5.30;;;;;;;7.34;100.00;99468.94;5070561;28;20076;-51
2022/09/28 06:56:42;;;;;;;9.95;5.43;;;;;;;7.48;100.00;99471.34;5068880;28;20053;-51
2022/09/28 06:59:12;;;;;;;10.55;5.43;;;;;;;7.53;100.00;99465.78;5071407;28;20067;-52
2022/09/28 07:01:40;;;;;;;8.85;5.38;;;;;;;7.56;100.00;99466.38;5067838;28;20372;-51
2022/09/28 07:04:08;;;;;;;7.38;5.10;;;;;;;7.67;100.00;99468.19;5069542;28;20033;-54
2022/09/28 07:06:37;;;;;;;9.18;5.80;;;;;;;7.73;100.00;99459.03;5069963;28;20114;-49
2022/09/28 07:09:06;;;;;;;8.70;5.90;;;;;;;7.76;100.00;99472.75;5070004;28;20081;-49
2022/09/28 07:11:54;;;;;;;11.90;5.80;;;;;;;7.99;100.00;99466.69;5071769;28;20072;-53
2022/09/28 07:14:23;;;;;;;9.38;5.28;;;;;;;8.06;100.00;99473.16;5071273;28;20051;-53
2022/09/28 07:17:11;;;;;;;6.97;4.63;;;;;;;8.25;100.00;99475.22;5067385;28;20102;-53
2022/09/28 07:19:42;;;;;;;7.72;4.68;;;;;;;8.39;100.00;99474.94;5070981;28;20052;-53
2022/09/28 07:22:13;;;;;;;8.90;4.65;;;;;;;8.55;100.00;99473.78;5068647;28;20064;-51
2022/09/28 07:24:47;;;;;;;10.95;4.40;;;;;;;8.62;100.00;99474.97;5069775;28;20123;-51
2022/09/28 07:27:16;;;;;;;6.88;4.30;;;;;;;8.88;100.00;99472.91;5071983;28;20435;-53
2022/09/28 07:29:45;;;;;;;7.18;4.13;;;;;;;9.37;100.00;99472.53;5071925;28;20091;-53
2022/09/28 07:32:13;;;;;;;6.80;4.18;;;;;;;9.30;100.00;99477.44;5066603;28;20056;-52
2022/09/28 07:34:43;;;;;;;7.47;4.00;;;;;;;9.41;100.00;99485.28;5068050;28;20373;-53
2022/09/28 07:37:12;;;;;;;5.68;3.35;;;;;;;9.68;100.00;99486.59;5071803;28;20530;-54
2022/09/28 07:42:28;;;;;;;6.05;3.10;;;;;;;10.01;100.00;99500.47;5068933;28;20044;-52
2022/09/28 07:44:58;;;;;;;4.75;2.80;;;;;;;10.03;100.00;99502.97;5071200;28;20040;-54
2022/09/28 07:47:27;;;;;;;6.18;2.90;;;;;;;10.36;100.00;99503.72;5073479;28;20143;-55
2022/09/28 07:50:01;;;;;;;5.00;2.67;;;;;;;10.24;100.00;99506.41;5073565;28;20048;-54
2022/09/28 07:52:29;;;;;;;5.55;2.67;;;;;;;10.75;100.00;99509.97;5073069;28;20052;-54
2022/09/28 07:54:58;;;;;;;6.60;2.78;;;;;;;10.85;100.00;99514.44;5072959;28;20045;-54
2022/09/28 07:57:34;;;;;;;3.72;2.20;;;;;;;11.20;100.00;99513.94;5072509;28;20044;-53
2022/09/28 08:00:06;;;;;;;5.00;2.50;;;;;;;11.31;100.00;99520.91;5072252;28;20143;-53
2022/09/28 08:02:34;;;;;;;;;;;;;;;11.37;100.00;99524.78;5075310;28;20052;-56
2022/09/28 08:05:03;;;;;;;4.20;2.20;;;;;;;11.49;100.00;99524.53;5074822;28;19971;-54
2022/09/28 08:07:33;;;;;;;6.53;1.98;;;;;;;11.88;100.00;99521.03;5074739;28;20142;-55
2022/09/28 08:10:01;;;;;;;3.42;1.90;;;;;;;12.04;100.00;99523.13;5073184;28;20083;-55
2022/09/28 08:12:29;;;;;;;3.78;1.83;;;;;;;12.18;100.00;99521.84;5072051;28;20540;-55
2022/09/28 08:14:58;;;;;;;3.67;1.60;;;;;;;12.21;100.00;99520.72;5074531;28;20052;-55
2022/09/28 08:17:28;;;;;;;3.67;1.77;;;;;;;12.39;100.00;99520.81;5074764;28;20049;-56
2022/09/28 08:22:41;;;;;;;2.25;1.42;;;;;;;12.87;100.00;99535.63;5072474;28;20045;-55
2022/09/28 08:25:09;;;;;;;3.00;1.25;;;;;;;12.73;100.00;99534.28;5072504;28;20072;-57
2022/09/28 08:27:38;;;;;;;3.72;1.40;;;;;;;12.81;100.00;99533.56;5071543;28;20048;-54
2022/09/28 08:30:07;;;;;;;2.28;1.20;;;;;;;12.93;100.00;99537.66;5074955;28;20447;-55
2022/09/28 08:32:37;;;;;;;2.55;1.45;;;;;;;13.16;100.00;99534.63;5074904;28;20056;-55
2022/09/28 08:35:05;;;;;;;3.03;1.40;;;;;;;12.92;100.00;99530.72;5074303;28;20033;-55
2022/09/28 08:37:33;;;;;;;1.58;1.10;;;;;;;13.13;100.00;99534.91;5074278;28;20033;-56
2022/09/28 08:40:02;;;;;;;2.17;1.20;;;;;;;13.04;100.00;99533.16;5072984;28;20052;-56
2022/09/28 08:42:34;;;;;;;1.23;0.80;;;;;;;13.27;100.00;99536.22;5074167;28;20041;-57
2022/09/28 08:45:07;;;;;;;;;;;;;;;13.39;100.00;99540.34;5075046;28;20044;-56
2022/09/28 08:50:39;;;;;;;2.22;1.13;;;;;;;13.41;100.00;99542.81;5072985;28;20553;-57
2022/09/28 08:53:32;;;;;;;2.88;1.15;;;;;;;13.47;100.00;99539.56;5074157;28;20062;-58
2022/09/28 08:56:03;;;;;;;2.03;1.10;;;;;;;13.87;100.00;99543.56;5074272;28;20044;-57
2022/09/28 08:58:36;;;;;;;2.08;0.93;;;;;;;14.11;100.00;99544.72;5072986;28;20449;-58
2022/09/28 09:01:10;;;;;;;4.32;1.25;;;;;;;14.23;100.00;99548.78;5071797;28;20809;-56
2022/09/28 09:03:41;;;;;;;2.85;1.10;;;;;;;14.14;100.00;99550.53;5070519;28;20055;-57
2022/09/28 09:06:21;;;;;;;2.78;1.27;;;;;;;14.21;100.00;99558.69;5071217;28;20131;-57
2022/09/28 09:08:59;;;;;;;2.85;1.25;;;;;;;14.06;100.00;99554.91;5071655;28;20055;-57
2022/09/28 09:11:55;;;;;;;3.30;1.15;;;;;;;13.99;100.00;99562.66;5071118;28;20071;-56
2022/09/28 09:14:43;;;;;;;4.93;1.05;;;;;;;14.21;100.00;99558.69;5071315;28;20083;-56
2022/09/28 09:17:22;;;;;;;3.70;1.00;;;;;;;14.06;100.00;99558.41;5069453;28;20503;-57
2022/09/28 09:19:58;;;;;;;3.10;1.13;;;;;;;14.20;100.00;99554.38;5071245;28;20127;-56
2022/09/28 09:22:39;;;;;;;4.80;1.00;;;;;;;14.15;100.00;99562.78;5071184;28;20101;-57
2022/09/28 09:25:18;;;;;;;4.65;1.38;;;;;;;13.89;100.00;99565.38;5070995;28;20044;-56
2022/09/28 09:28:08;;;;;;;3.45;1.10;;;;;;;14.56;100.00;99569.31;5070646;28;20044;-57
2022/09/28 09:30:45;;;;;;;2.25;0.75;;;;;;;14.48;99.65;99567.44;5073203;28;20417;-57
2022/09/28 09:33:44;;;;;;;3.17;0.73;;;;;;;14.57;95.25;99566.50;5073666;28;20040;-57
2022/09/28 09:36:28;;;;;;;2.28;0.80;;;;;;;14.71;97.65;99562.47;5072254;28;20091;-56
2022/09/28 09:39:12;;;;;;;2.55;0.70;;;;;;;15.07;95.64;99566.78;5073216;28;20128;-57
2022/09/28 09:41:52;;;;;;;2.35;0.80;;;;;;;15.25;94.47;99559.53;5073338;28;20052;-57
2022/09/28 09:44:38;;;;;;;1.70;0.73;;;;;;;15.40;90.52;99566.88;5072032;28;20426;-57
2022/09/28 09:47:12;;;;;;;2.95;0.80;;;;;;;15.52;91.48;99568.22;5073096;28;20061;-57
2022/09/28 09:49:45;;;;;;;2.33;1.00;;;;;;;15.68;88.46;99580.66;5071404;28;20498;-57
2022/09/28 09:52:21;;;;;;;2.72;0.90;;;;;;;15.78;85.61;99581.31;5070674;28;20506;-57
2022/09/28 09:54:55;;;;;;;2.45;0.75;;;;;;;16.05;88.58;99582.03;5072751;28;20049;-57
2022/09/28 09:57:26;;;;;;;2.63;0.70;;;;;;;16.31;86.37;99581.84;5072886;28;20048;-57
2022/09/28 09:59:58;;;;;;;0.88;0.60;;;;;;;16.57;84.31;99578.16;5072325;28;20079;-58
2022/09/28 10:02:28;;;;;;;2.58;0.70;;;;;;;16.62;85.03;99591.75;5072800;28;20055;-59
2022/09/28 10:05:02;;;;;;;3.05;1.00;;;;;;;16.42;87.23;99580.66;5072736;28;20049;-59
2022/09/28 10:07:39;;;;;;;1.85;0.63;;;;;;;16.35;83.26;99587.66;5072753;28;20053;-60
2022/09/28 10:10:15;;;;;;;1.63;0.60;;;;;;;16.88;83.60;99582.72;5072730;28;20143;-59
2022/09/28 10:12:43;;;;;;;1.42;0.50;;;;;;;16.77;80.74;99575.09;5072830;28;20045;-60
2022/09/28 10:15:19;;;;;;;1.63;0.70;;;;;;;16.98;78.80;99571.91;5072751;28;20075;-59
2022/09/28 10:17:47;;;;;;;2.53;0.65;;;;;;;16.90;76.70;99572.75;5072307;28;20422;-59
2022/09/28 10:20:16;;;;;;;1.17;0.52;;;;;;;16.78;76.34;99580.22;5070032;28;20048;-60
2022/09/28 10:22:47;;;;;;;1.17;0.50;;;;;;;16.59;76.71;99580.63;5070458;28;20060;-60
2022/09/28 10:25:17;;;;;;;3.53;0.60;;;;;;;16.59;76.29;99578.78;5071806;28;20048;-59
2022/09/28 10:27:51;;;;;;;1.33;0.45;;;;;;;16.79;75.43;99584.53;5072412;28;20087;-60
2022/09/28 10:30:22;;;;;;;2.25;0.63;;;;;;;16.60;73.90;99577.81;5071977;28;20140;-60
2022/09/28 10:32:53;;;;;;;1.00;0.50;;;;;;;16.68;74.43;99577.78;5072044;28;20045;-60
2022/09/28 10:35:25;;;;;;;2.88;0.70;;;;;;;16.62;73.00;99573.16;5072076;28;20491;-59
2022/09/28 10:37:58;;;;;;;1.58;0.50;;;;;;;16.64;75.60;99576.47;5072270;28;20052;-59
2022/09/28 10:40:32;;;;;;;3.20;0.60;;;;;;;16.92;72.56;99577.91;5070240;28;20495;-60
2022/09/28 10:43:02;;;;;;;1.85;0.52;;;;;;;17.14;70.13;99579.81;5070174;28;20554;-60
2022/09/28 10:45:35;;;;;;;2.60;0.60;;;;;;;16.78;69.77;99588.19;5072552;28;20140;-60
2022/09/28 10:48:16;;;;;;;2.42;0.60;;;;;;;16.64;72.18;99587.06;5072192;28;20067;-59
2022/09/28 10:50:58;;;;;;;1.65;0.55;;;;;;;16.71;71.96;99587.22;5072299;28;20106;-59
2022/09/28 10:53:27;;;;;;;1.98;0.57;;;;;;;16.52;69.24;99583.97;5072470;28;20045;-59
2022/09/28 10:55:58;;;;;;;0.90;0.47;;;;;;;16.89;69.20;99576.41;5072195;28;20557;-60
2022/09/28 10:58:29;;;;;;;0.80;0.50;;;;;;;17.56;72.63;99577.72;5070177;28;20083;-59
2022/09/28 11:01:05;;;;;;;3.40;0.50;;;;;;;18.23;67.63;99576.25;5067879;28;20044;-60
2022/09/28 11:03:33;;;;;;;1.75;0.60;;;;;;;18.52;62.59;99578.13;5069063;28;20127;-59
2022/09/28 11:06:04;;;;;;;0.95;0.40;;;;;;;18.90;62.24;99577.25;5069175;28;20036;-60
2022/09/28 11:08:38;;;;;;;2.83;0.40;;;;;;;18.38;60.98;99570.97;5070133;28;20167;-61
2022/09/28 11:11:11;;;;;;;2.75;0.40;;;;;;;18.32;62.49;99569.81;5068526;28;20060;-60
2022/09/28 11:13:42;;;;;;;2.05;0.50;;;;;;;18.17;63.87;99579.63;5069472;28;20532;-61
2022/09/28 11:16:27;;;;;;;1.15;0.40;;;;;;;18.38;59.92;99571.78;5072061;28;20049;-60
2022/09/28 11:18:56;;;;;;;1.52;0.40;;;;;;;19.16;62.71;99571.41;5072060;28;20040;-60
2022/09/28 11:21:26;;;;;;;1.20;0.38;;;;;;;19.38;60.54;99574.13;5072751;28;20123;-61
2022/09/28 11:24:07;;;;;;;1.15;0.40;;;;;;;19.23;56.65;99572.31;5073268;28;20078;-60
2022/09/28 11:26:41;;;;;;;1.95;0.60;;;;;;;20.13;56.31;99569.31;5073294;28;20040;-61
2022/09/28 11:29:26;;;;;;;2.42;0.43;;;;;;;20.26;57.86;99572.09;5075897;28;20056;-61
2022/09/28 11:32:00;;;;;;;0.88;0.40;;;;;;;20.69;54.96;99573.00;5075905;28;20052;-62
2022/09/28 11:34:34;;;;;;;1.00;0.40;;;;;;;20.45;54.70;99564.41;5075368;28;20127;-62
2022/09/28 11:37:46;;;;;;;2.22;0.50;;;;;;;21.00;52.77;99566.38;5071900;28;20090;-62
2022/09/28 11:40:26;;;;;;;0.70;0.30;;;;;;;21.42;50.65;99561.78;5072509;28;20052;-63
2022/09/28 11:43:08;;;;;;;2.53;0.45;;;;;;;21.32;49.88;99564.81;5075707;28;20494;-62
2022/09/28 11:45:51;;;;;;;0.98;0.40;;;;;;;20.63;50.25;99574.59;5075669;28;20073;-62
2022/09/28 11:48:25;;;;;;;0.85;0.35;;;;;;;20.32;51.70;99570.47;5073611;28;20069;-61
2022/09/28 11:50:58;;;;;;;1.02;0.43;;;;;;;20.23;53.40;99568.97;5072579;28;20056;-61
2022/09/28 11:53:33;;;;;;;2.22;0.57;;;;;;;20.03;52.69;99564.31;5072014;28;20491;-63
2022/09/28 11:56:13;;;;;;;0.52;0.30;;;;;;;20.82;52.56;99564.22;5072844;28;20040;-59
2022/09/28 11:58:46;;;;;;;0.85;0.30;;;;;;;21.31;50.83;99557.00;5073643;28;20098;-61
2022/09/28 12:01:24;;;;;;;2.42;0.40;;;;;;;21.73;49.15;99561.25;5070588;28;20109;-61
2022/09/28 12:04:00;;;;;;;1.08;0.30;;;;;;;22.08;48.95;99562.91;5074994;28;20790;-60
2022/09/28 12:06:34;;;;;;;0.70;0.32;;;;;;;21.86;45.45;99563.09;5072413;28;20060;-63